Weather observations for the past three days for
Watonga, Watonga Airport
Metric (Imperial)
Date Time (cdt) Wind (kph) Vis. (km) Weather Sky Cond. Temperature (ºC) Relative Humidity Wind Chill (°C) Heat Index (°C) Pressure Precipitation (cm)
Air Dwpt 6 hour altimeter (cm) sea level (mb) 1 hr 3 hr 6 hr
Max. Min.
05 12:15 N 43 G 50 11.27 Overcast and Windy OVC014 11.4 8.4 82% 75.72 0.0
05 11:55 N 50 G 57 16.09 Overcast and Windy OVC016 11.3 7.4 77% 75.72 0.0
05 11:35 N 41 G 54 16.09 Overcast and Breezy OVC016 11.6 7.1 74% 75.72 0.0
05 11:15 N 43 G 56 16.09 Overcast and Windy OVC016 12 7.2 73% 75.67 0.0
05 10:55 N 43 G 57 16.09 Overcast and Windy OVC018 12.4 7.3 71% 75.62 0.0
05 10:35 N 41 G 57 16.09 Overcast and Breezy OVC020 12.7 7.3 70% 75.62 0.0
05 10:15 N 39 G 50 16.09 Overcast and Breezy OVC018 13.2 7.1 67% 75.54 0.0
05 09:55 N 37 G 52 16.09 Overcast and Breezy OVC018 13.2 7.3 68% 75.51 0.0
05 09:35 N 43 G 56 16.09 Overcast and Windy OVC018 13.1 7.3 68% 75.49 0.0
05 09:15 N 43 G 56 16.09 Overcast and Windy OVC018 13.3 7.9 70% 75.49 0.0
05 08:55 N 44 G 52 16.09 Overcast and Windy OVC016 13.6 8.8 73% 75.44 0.0
05 08:35 N 39 G 50 16.09 Overcast and Breezy OVC014 13.7 9.2 74% 75.41 0.0
05 08:15 N 41 G 56 16.09 Overcast and Breezy OVC014 14 9.7 76% 75.36 0.0
05 07:55 N 41 G 52 16.09 Overcast and Breezy OVC012 14.7 10.8 78% 75.31 0.0
05 07:35 N 39 G 54 16.09 Overcast and Breezy BKN006 OVC009 17 15.6 92% 75.29 0.0
05 07:15 N 31 G 43 16.09 Overcast OVC004 17 16.3 96% 75.23 0.0
05 06:55 N 28 G 35 16.09 Partly Cloudy SCT004 16.7 15.9 21.7 15.8 95% 75.18 0.0
05 06:35 N 17 16.09 Fair CLR 16.7 14.4 86% 75.13 0.0
05 06:15 NW 7 16.09 Fair CLR 15.9 13.4 85% 75.11 0.0
05 05:55 NW 7 16.09 Fair CLR 17.1 14.1 83% 75.08 0.0
05 05:35 N 15 16.09 Fair CLR 17.6 13.4 77% 75.08 0.0
05 05:15 W 15 16.09 Fair CLR 18.7 14.9 79% 75.03 0.0
05 04:55 S 13 16.09 Fair CLR 19.5 15.5 78% 75.01 0.0
05 04:35 S 15 16.09 Fair CLR 19.5 15.8 79% 74.98 0.0
05 04:15 S 11 16.09 Fair CLR 19.9 16 78% 74.98 0.0
05 03:55 S 17 G 28 16.09 Fair CLR 20.1 16.2 78% 74.98 0.0
05 03:35 S 19 16.09 Fair CLR 20.4 16.3 77% 74.98 0.0
05 03:15 S 15 16.09 Fair CLR 20.4 16.4 78% 75.01 0.0
05 02:55 S 15 16.09 Fair CLR 20.6 16.5 77% 75.01 0.0
05 02:35 S 17 16.09 Fair CLR 20.7 16.5 77% 75.01 0.0
05 02:15 S 20 16.09 Fair CLR 21 16.5 76% 75.03 0.0
05 01:55 S 17 16.09 Fair CLR 21.3 16.5 74% 75.03 0.0
05 01:35 S 20 16.09 Fair CLR 21.4 16.6 74% 75.06 0.0
05 01:15 S 20 G 31 16.09 Fair CLR 21.5 16.6 74% 75.06 0.0
05 00:55 S 17 16.09 Fair CLR 21.7 16.5 28.5 21.6 72% 75.08 0.0
05 00:35 S 20 16.09 Fair CLR 21.8 16.6 72% 75.08 0.0
05 00:15 S 15 16.09 Fair CLR 22 16.5 71% 75.11 0.0
04 23:55 S 15 16.09 Fair CLR 22.5 16.5 69% 75.13 0.0
04 23:35 S 17 16.09 Fair CLR 22.7 16.4 68% 75.13 0.0
04 23:15 S 17 16.09 Fair CLR 23.1 16.4 66% 75.16 0.0
04 22:55 S 19 16.09 Fair CLR 23.7 16.3 63% 75.16 0.0
04 22:35 S 28 G 35 16.09 Fair CLR 24.2 16.4 62% 25 75.16 0.0
04 22:15 S 26 G 35 16.09 Fair CLR 24.3 16.1 60% 25 75.13 0.0
04 21:55 S 24 G 43 16.09 Fair CLR 25.3 15.5 55% 26 75.11 0.0
04 21:35 S 28 G 43 16.09 Fair CLR 25.4 15.3 54% 26 75.08 0.0
04 21:15 S 26 G 33 16.09 Fair CLR 25.6 15.2 53% 26 75.08 0.0
04 20:55 S 22 G 30 16.09 Fair CLR 25.7 15.3 53% 26 75.06 0.0
04 20:35 S 24 G 41 16.09 Fair CLR 26.3 15.2 51% 27 75.06 0.0
04 20:15 S 24 G 43 16.09 Fair CLR 27 15 48% 27 75.06 0.0
04 19:55 S 39 G 48 16.09 Fair and Breezy CLR 27 14.8 47% 27 75.06 0.0
04 19:35 S 33 G 44 16.09 Fair and Breezy CLR 27.4 14.8 46% 28 75.06 0.0
04 19:15 S 33 G 44 16.09 Fair and Breezy CLR 27.9 14.7 44% 28 75.06 0.0
04 18:55 SE 30 G 44 16.09 Fair CLR 28.7 14 30.8 26.5 41% 28 75.06 0.0
04 18:35 S 26 G 44 16.09 Fair CLR 29.4 13.3 37% 29 75.08 0.0
04 18:15 SE 31 G 44 16.09 Fair CLR 29.5 12.9 36% 29 75.11 0.0
04 17:55 S 24 G 41 16.09 Fair CLR 30.1 11 31% 29 75.11 0.0
04 17:35 S 28 G 44 16.09 Fair CLR 30 11 31% 29 75.13 0.0
04 17:15 S 26 G 46 16.09 Fair CLR 30.3 10.4 29% 29 75.13 0.0
04 16:55 S 22 G 37 16.09 Fair CLR 30 11.4 32% 29 75.13 0.0
04 16:35 S 28 G 39 16.09 Fair CLR 30.1 10.8 30% 29 75.16 0.0
04 16:15 S 30 G 50 16.09 Fair CLR 30.5 9.8 28% 29 75.21 0.0
04 15:55 S 28 G 43 16.09 Fair CLR 30.2 9.9 28% 29 75.23 0.0
04 15:35 S 31 G 41 16.09 Fair CLR 30 9.6 28% 29 75.26 0.0
04 15:15 S 30 G 37 16.09 Fair CLR 29.9 9 27% 28 75.29 0.0
04 14:55 SW 28 G 43 16.09 Fair CLR 29.5 8.8 27% 28 75.31 0.0
04 14:35 S 31 G 43 16.09 Fair CLR 28.7 9.8 31% 28 75.34 0.0
04 14:15 S 24 G 44 16.09 Fair CLR 27.9 10.5 34% 27 75.39 0.0
04 13:55 S 30 G 48 16.09 Fair CLR 27.9 10.2 33% 27 75.39 0.0
04 13:35 S 30 G 39 16.09 Fair CLR 27 10.3 35% 27 75.41 0.0
04 13:15 SW 31 G 43 16.09 Fair CLR 27 9.7 34% 27 75.44 0.0
04 12:55 S 30 G 41 16.09 Fair CLR 26.7 9.8 27 16.4 35% 26 75.46 0.0
04 12:35 S 28 16.09 Fair CLR 25.9 10.3 38% 26 75.46 0.0
04 12:15 S 35 G 43 16.09 Fair and Breezy CLR 25.5 9.9 37% 26 75.49 0.0
04 11:55 S 33 G 48 16.09 Fair and Breezy CLR 25.3 9.9 38% 26 75.49 0.0
04 11:35 S 33 G 50 16.09 Fair and Breezy CLR 24.6 9.5 38% 25 75.51 0.0
04 11:15 SW 35 G 44 16.09 Fair and Breezy CLR 24.2 9.6 40% 25 75.54 0.0
04 10:55 S 35 G 44 16.09 Fair and Breezy CLR 24.1 9.7 40% 25 75.54 0.0
04 10:35 SW 33 G 43 16.09 Fair and Breezy CLR 23 9.3 42% 75.54 0.0
04 10:15 S 33 G 44 16.09 Fair and Breezy CLR 22.7 9.2 42% 75.57 0.0
04 09:55 S 26 16.09 Fair CLR 22.3 9.4 44% 75.57 0.0
04 09:35 S 31 G 48 16.09 Fair CLR 21.8 9 44% 75.59 0.0
04 09:15 S 28 G 43 16.09 Fair CLR 21.1 9 46% 75.59 0.0
04 08:55 S 24 G 43 16.09 Fair CLR 20.4 8.7 47% 75.62 0.0
04 08:35 S 24 G 35 16.09 Fair CLR 19.7 8.7 49% 75.59 0.0
04 08:15 S 26 G 31 16.09 Fair CLR 19.1 8.6 51% 75.62 0.0
04 07:55 S 22 G 33 16.09 Fair CLR 18 8.1 53% 75.59 0.0
04 07:35 S 24 G 31 16.09 Fair CLR 17.1 7.8 55% 75.59 0.0
04 07:15 S 22 16.09 Fair CLR 16.6 7.5 55% 75.59 0.0
04 06:55 S 19 G 30 16.09 Fair CLR 16.6 7.2 19.6 16.5 54% 75.59 0.0
04 06:35 S 20 G 35 16.09 Fair CLR 16.7 7 53% 75.59 0.0
04 06:15 S 28 G 35 16.09 Fair CLR 16.8 6.9 52% 75.59 0.0
04 05:55 S 24 G 41 16.09 Fair CLR 16.9 6.8 52% 75.62 0.0
04 05:35 S 26 G 39 16.09 Fair CLR 17 6.7 51% 75.67 0.0
04 05:15 S 24 G 30 16.09 Fair CLR 17.1 6.6 50% 75.67 0.0
04 04:55 S 22 G 37 16.09 Fair CLR 17.5 6.5 49% 75.69 0.0
04 04:35 S 24 16.09 Fair CLR 17.8 6.4 47% 75.69 0.0
04 04:15 S 26 G 39 16.09 Fair CLR 18 6.4 47% 75.69 0.0
04 03:55 S 24 G 37 16.09 Fair CLR 18.4 6.3 45% 75.72 0.0
04 03:35 S 26 G 41 16.09 Fair CLR 18.5 6.2 45% 75.72 0.0
04 03:15 S 24 16.09 Fair CLR 18.7 6.1 44% 75.72 0.0
04 02:55 S 24 G 31 16.09 Fair CLR 18.5 6 44% 75.74 0.0
04 02:35 S 24 16.09 Fair CLR 18.4 5.8 44% 75.77 0.0
04 02:15 S 22 G 35 16.09 Fair CLR 18.7 5.6 42% 75.77 0.0
04 01:55 S 24 G 35 16.09 Fair CLR 18.8 5.4 42% 75.79 0.0
04 01:15 S 26 G 31 16.09 Fair CLR 19.4 4.9 39% 75.82 0.0
04 00:55 S 24 G 37 16.09 Fair CLR 19.7 4.8 27.5 19.6 38% 75.84 0.0
04 00:35 S 28 G 41 16.09 Fair CLR 20 4.7 37% 75.84 0.0
04 00:15 S 31 G 44 16.09 Fair CLR 20.1 4.9 37% 75.84 0.0
03 23:55 S 37 G 46 16.09 Fair and Breezy CLR 20.4 5 37% 75.84 0.0
03 23:35 S 31 G 41 16.09 Fair CLR 20.5 5.1 37% 75.87 0.0
03 23:15 S 31 G 46 16.09 Fair CLR 20.9 5.1 36% 75.87 0.0
03 22:55 S 31 G 46 16.09 Fair CLR 21.1 5.1 35% 75.9 0.0
03 22:35 S 33 G 46 16.09 Fair and Breezy CLR 21.4 5 34% 75.9 0.0
03 22:15 S 28 G 44 16.09 Fair CLR 21.6 4.9 34% 75.9 0.0
03 21:55 S 30 G 44 16.09 Fair CLR 21.9 4.9 33% 75.87 0.0
03 21:35 S 24 G 30 16.09 Fair CLR 22.1 4.6 32% 75.87 0.0
03 21:15 S 19 16.09 Fair CLR 22.3 4 30% 75.87 0.0
03 20:55 S 19 16.09 Fair CLR 23.2 3.7 28% 75.87 0.0
03 20:35 S 22 G 31 16.09 Fair CLR 24 3.5 26% 25 75.84 0.0
03 20:15 S 20 16.09 Fair CLR 24.7 3.5 25% 25 75.84 0.0
03 19:55 S 24 G 37 16.09 Fair CLR 25.8 3.2 23% 25 75.84 0.0
03 19:35 S 24 G 41 16.09 Fair CLR 26.3 3 22% 26 75.84 0.0
03 19:15 S 26 G 33 16.09 Fair CLR 27.1 1.9 20% 26 75.87 0.0
03 18:55 SW 35 G 48 16.09 Fair and Breezy CLR 27.7 1.1 29.9 27.4 18% 26 75.9 0.0
03 18:35 SW 39 G 46 16.09 Fair and Breezy CLR 28.4 1 17% 27 75.9 0.0
03 18:15 S 30 16.09 Fair CLR 28.5 0.8 17% 27 75.92 0.0
03 17:55 S 33 G 50 16.09 Fair and Breezy CLR 28.5 1.2 17% 27 75.92 0.0
03 17:35 SW 31 G 54 16.09 Fair CLR 29 1.2 17% 27 75.92 0.0
03 17:15 SW 33 G 65 16.09 Fair and Breezy CLR 29.2 1.5 17% 28 75.95 0.0
03 16:55 SW 43 G 54 16.09 Fair and Windy CLR 29.1 1.5 17% 27 75.97 0.0
03 16:35 SW 41 G 52 16.09 Fair and Breezy CLR 29.1 1.5 17% 27 76 0.0
03 16:15 SW 43 G 52 16.09 Fair and Windy CLR 28.8 1.1 17% 27 76.02 0.0
03 15:55 SW 33 G 46 16.09 Fair and Breezy CLR 29.1 0.9 16% 27 76.05 0.0
03 15:35 SW 31 G 50 16.09 Fair CLR 29.2 0.4 15% 28 76.07 0.0
03 15:15 SW 35 G 54 16.09 Fair and Breezy CLR 29.4 0.2 15% 28 76.1 0.0
03 14:55 SW 39 G 50 16.09 Fair and Breezy CLR 28.9 0.7 16% 27 76.12 0.0
03 14:35 SW 33 G 50 16.09 Fair and Breezy CLR 29.1 0.2 15% 27 76.15 0.0
03 14:15 SW 37 G 48 16.09 Fair and Breezy CLR 28.7 0.8 16% 27 76.17 0.0
03 13:55 SW 31 G 52 16.09 Fair CLR 28.6 0.9 17% 27 76.2 0.0
03 13:35 SW 33 G 44 16.09 Fair and Breezy CLR 28.4 1.1 17% 27 76.25 0.0
03 13:15 SW 33 G 44 16.09 Fair and Breezy CLR 28 0 16% 27 76.28 0.0
03 12:55 SW 35 G 46 16.09 Fair and Breezy CLR 27.7 -1.1 28.1 10.5 15% 26 76.3 0.0
03 12:35 SW 31 G 44 16.09 Fair CLR 27.6 1.9 19% 26 76.33 0.0
03 12:15 SW 22 G 39 16.09 Fair CLR 27.5 1.6 19% 26 76.33 0.0
03 11:55 SW 26 G 37 16.09 Fair CLR 27.3 2.1 20% 26 76.35 0.0
03 11:35 SW 30 16.09 Fair CLR 27.2 2.9 21% 26 76.35 0.0
03 11:15 SW 20 16.09 Fair CLR 26.5 4.9 25% 26 76.35 0.0
03 10:55 W 24 16.09 Fair CLR 26 4.7 25% 26 76.35 0.0
03 10:35 W 22 16.09 Fair CLR 24.6 4.7 28% 25 76.38 0.0
03 10:15 W 15 16.09 Fair CLR 22.9 5 31% 76.38 0.0
03 09:55 W 19 16.09 Fair CLR 21.8 4.9 33% 76.38 0.0
03 09:35 W 22 G 33 16.09 Fair CLR 20.3 4.7 36% 76.38 0.0
03 09:15 W 19 16.09 Fair CLR 18.9 4 37% 76.4 0.0
03 08:55 SW 9 16.09 Fair CLR 18 4.4 41% 76.38 0.0
03 08:35 SW 11 16.09 Fair CLR 16.2 5.3 49% 76.38 0.0
03 08:15 SW 9 16.09 Fair CLR 13.8 6.8 63% 76.38 0.0
03 07:55 S 7 16.09 Fair CLR 12.4 6.5 68% 76.38 0.0
03 07:35 S 7 16.09 Fair CLR 11.1 6.3 73% 76.35 0.0
03 07:15 S 11 16.09 Fair CLR 10.6 6 73% 76.35 0.0
03 06:55 S 11 16.09 Fair CLR 10.6 5.9 12.4 7.9 73% 76.33 0.0
03 06:35 S 11 16.09 Fair CLR 10.2 5.9 75% 76.33 0.0
03 06:15 S 9 16.09 Fair CLR 9.8 5.9 77% 9 76.33 0.0
03 05:55 S 9 16.09 Fair CLR 9.4 5.5 77% 8 76.33 0.0
03 05:35 S 7 16.09 Fair CLR 9.7 5.5 75% 9 76.35 0.0
03 05:15 S 9 16.09 Fair CLR 10 5.8 75% 9 76.35 0.0
03 04:55 S 6 16.09 Fair CLR 8 5 82% 76.38 0.0
03 04:35 S 6 16.09 Fair CLR 8.9 5.2 78% 76.38 0.0
03 04:15 S 7 16.09 Fair CLR 10.4 5.6 72% 76.4 0.0
03 03:55 S 9 16.09 Fair CLR 10.4 5.8 73% 76.4 0.0
03 03:35 S 9 16.09 Fair CLR 10.5 5.6 72% 76.4 0.0
03 03:15 SE 9 16.09 Fair CLR 10.5 5.4 71% 76.43 0.0
03 02:55 SE 9 16.09 Fair CLR 10.9 5.3 69% 76.43 0.0
03 02:35 SE 9 16.09 Fair CLR 11.4 5.2 66% 76.45 0.0
03 02:15 SE 11 16.09 Fair CLR 11.6 5.2 65% 76.48 0.0
03 01:55 SE 11 16.09 Fair CLR 11.8 5 63% 76.5 0.0
03 01:35 SE 11 16.09 Fair CLR 12 4.9 62% 76.53 0.0
03 01:15 SE 9 16.09 Fair CLR 12 4.7 61% 76.53 0.0
03 00:55 SE 9 16.09 Fair CLR 12.3 4.5 21.7 11.9 59% 76.53 0.0
03 00:35 SE 7 16.09 Fair CLR 12.8 4.4 57% 76.53 0.0
03 00:15 SE 7 16.09 Fair CLR 13.7 4.3 53% 76.53 0.0
02 23:55 SE 11 16.09 Fair CLR 14.2 4.5 52% 76.56 0.0
02 23:35 SE 9 16.09 Fair CLR 14.4 4.6 52% 76.53 0.0
02 23:15 SE 11 16.09 Fair CLR 14.7 4.9 52% 76.53 0.0
02 22:55 E 13 16.09 Fair CLR 15.1 5 51% 76.53 0.0
02 22:35 E 11 16.09 Fair CLR 14.9 5.3 53% 76.53 0.0
02 22:15 E 11 16.09 Fair CLR 14.5 5.4 55% 76.53 0.0
02 21:55 E 7 11.27 Fair with Haze CLR 12.7 5.1 60% 76.5 0.0
02 21:35 E 9 16.09 Fair CLR 13.9 5.1 56% 76.5 0.0
02 21:15 E 9 16.09 Fair CLR 15.2 5.4 52% 76.48 0.0
02 20:55 E 9 16.09 Fair CLR 15.7 5 49% 76.45 0.0
02 20:35 E 11 16.09 Fair CLR 16.6 4.8 46% 76.45 0.0
02 20:15 E 13 16.09 Fair CLR 18.8 4.6 39% 76.45 0.0
02 19:55 E 13 16.09 Fair CLR 19.8 4.4 36% 76.43 0.0
02 19:35 E 15 16.09 Fair CLR 20.9 4.1 33% 76.43 0.0
02 19:15 E 13 16.09 Fair CLR 21.5 4.2 32% 76.43 0.0
02 18:55 E 15 16.09 Fair CLR 21.9 4.2 23.3 19.2 32% 76.45 0.0
02 18:35 E 17 16.09 Fair CLR 22.1 4.1 31% 76.45 0.0
02 18:15 SE 13 16.09 Fair CLR 22.5 4.2 30% 76.45 0.0
02 17:55 E 7 16.09 Fair CLR 22.5 4.2 30% 76.45 0.0
02 17:35 E 15 16.09 Fair CLR 22.7 4.1 30% 76.45 0.0
02 17:15 E 19 16.09 Fair CLR 22.7 4.8 31% 76.48 0.0
02 16:55 NE 15 16.09 Fair CLR 23.2 5 31% 76.48 0.0
02 16:35 E 13 16.09 Fair CLR 22.8 4.9 31% 76.5 0.0
02 16:15 E 13 16.09 Partly Cloudy SCT075 23 4.7 31% 76.53 0.0
02 15:55 E 15 16.09 Partly Cloudy SCT075 22.5 4.7 31% 76.56 0.0
02 15:35 NW 6 16.09 Partly Cloudy SCT075 21.8 4.2 32% 76.58 0.0
02 15:15 N 15 16.09 Fair CLR 22.5 5.2 33% 76.58 0.0
02 14:55 N 7 G 31 16.09 Fair CLR 22.1 5.3 34% 76.61 0.0
02 14:35 N 11 16.09 Fair CLR 21.7 4.8 33% 76.61 0.0
02 14:15 Calm 16.09 Fair CLR 21.3 5.2 35% 76.63 0.0
02 13:55 NE 13 16.09 Partly Cloudy SCT095 21.2 5 35% 76.63 0.0
02 13:35 N 15 16.09 Mostly Cloudy BKN095 20.8 5.3 36% 76.66 0.0
02 13:15 NE 15 16.09 Overcast OVC085 19.5 4.6 38% 76.68 0.0
02 12:55 NE 17 16.09 Overcast OVC095 20.4 4.8 20.7 5.2 36% 76.68 0.0
02 12:35 NE 9 16.09 Mostly Cloudy BKN095 19.5 4.7 38% 76.71 0.0
Date Time (cdt) Wind (kph) Vis. (km) Weather Sky Cond. Air Dwpt Max. Min. Relative Humidity Wind Chill (°C) Heat Index (°C) altimeter (cm) sea level (mb) 1 hr 3 hr 6 hr
6 hour
Temperature (ºC) Pressure Precipitation (cm)